WetterOnline ( https://www.wetteronline.de )

Wetter aktuell Rietheim-Weilheim

Aktuelles Wetter: Klippeneck (975m)

6-stündlich | Neueste Meldungen
Ortszeit Temperatur Wetter
Di, 20.10. 20:00 10.4° C bedeckt
Di, 20.10. 14:00 14.2° C leicht bewölkt
Di, 20.10. 8:00 9.0° C wolkig
Di, 20.10. 2:00 4.8° C wolkenlos
Mo, 19.10. 20:00 4.9° C wolkig
Mo, 19.10. 14:00 7.7° C wolkig
Mo, 19.10. 8:00 3.2° C bedeckt
Mo, 19.10. 2:00 3.2° C bedeckt
Ortszeit Temperatur Wetter
Mi, 21.10. 0:30 10.4° C bedeckt
Mi, 21.10. 0:20 10.4° C bedeckt
Mi, 21.10. 0:10 10.3° C bedeckt
Mi, 21.10. 0:00 10.7° C bewölkt
Di, 20.10. 23:50 10.7° C bewölkt
Di, 20.10. 23:40 9.5° C bewölkt
Di, 20.10. 23:30 9.6° C bedeckt
Di, 20.10. 23:00 9.4° C bedeckt
Ortszeit Relative Feuchte Sichtweite
Di, 20.10. 20:00 61% 55 km
Di, 20.10. 14:00 52% 60 km
Di, 20.10. 8:00 56% 60 km
Di, 20.10. 2:00 77% 35 km
Mo, 19.10. 20:00 79% 30 km
Mo, 19.10. 14:00 63% 45 km
Mo, 19.10. 8:00 89% 40 km
Mo, 19.10. 2:00 92% 29 km
Ortszeit Relative Feuchte Sichtweite
Mi, 21.10. 0:30 60% 55 km
Mi, 21.10. 0:20 60% -
Mi, 21.10. 0:10 62% -
Mi, 21.10. 0:00 60% 50 km
Di, 20.10. 23:50 60% -
Di, 20.10. 23:40 67% -
Di, 20.10. 23:30 68% 50 km
Di, 20.10. 23:00 69% 50 km
Ortszeit Niederschlagsmenge Niederschlagsart
Di, 20.10. 20:00 0.1 l/m2 in 12 Std. -
Di, 20.10. 14:00 0.1 l/m2 in 6 Std. Niederschlag
Di, 20.10. 8:00 0.0 l/m2 in 12 Std. -
Di, 20.10. 2:00 0.0 l/m2 in 6 Std. -
Mo, 19.10. 20:00 0.0 l/m2 in 12 Std. -
Mo, 19.10. 14:00 0.0 l/m2 in 6 Std. -
Mo, 19.10. 8:00 0.0 l/m2 in 12 Std. -
Mo, 19.10. 2:00 0.0 l/m2 in 6 Std. -
Ortszeit Niederschlagsmenge Niederschlagsart
Mi, 21.10. 0:30 0.0 l/m2 in 1 Std. -
Mi, 21.10. 0:20 keine Meldung -
Mi, 21.10. 0:10 keine Meldung -
Mi, 21.10. 0:00 0.0 l/m2 in 1 Std. -
Di, 20.10. 23:50 keine Meldung -
Di, 20.10. 23:40 keine Meldung -
Di, 20.10. 23:30 0.0 l/m2 in 1 Std. -
Di, 20.10. 23:00 0.0 l/m2 in 1 Std. -
Ortszeit Stärke Spitze Richtung
km/h Bft. km/h Grad Sektor
Di, 20.10. 20:00 11 2 18 150° SO
Di, 20.10. 14:00 9 2 28 140° SO
Di, 20.10. 8:00 14 3 43 150° SO
Di, 20.10. 2:00 22 4 32 130° SO
Mo, 19.10. 20:00 20 4 26 130° SO
Mo, 19.10. 14:00 7 2 29 190° S
Mo, 19.10. 8:00 7 2 11 120° SO
Mo, 19.10. 2:00 4 1 11 160° S
Ortszeit Stärke Spitze Richtung
km/h Bft. km/h Grad Sektor
Mi, 21.10. 0:30 17 3 28 150° SO
Mi, 21.10. 0:20 17 3 - 150° SO
Mi, 21.10. 0:10 19 3 - 140° SO
Mi, 21.10. 0:00 14 3 25 150° SO
Di, 20.10. 23:50 14 3 - 150° SO
Di, 20.10. 23:40 19 3 - 140° SO
Di, 20.10. 23:30 18 3 25 130° SO
Di, 20.10. 23:00 18 3 25 140° SO
Ortszeit Untergrenze Bedeckung Gattung
total tief tief mittel hoch
Di, 20.10. 20:00 4500 m 8/8 8/8 - - -
Di, 20.10. 14:00 9000 m 5/8 0/8 - - -
Di, 20.10. 8:00 9000 m 8/8 0/8 - - -
Di, 20.10. 2:00 - 0/8 0/8 - - -
Mo, 19.10. 20:00 8700 m 8/8 0/8 - - -
Mo, 19.10. 14:00 810 m 6/8 4/8 - - -
Mo, 19.10. 8:00 1020 m 8/8 8/8 - - -
Mo, 19.10. 2:00 1140 m 8/8 8/8 - - -
Ortszeit Bedeckungsgrad in Achtel und Wolkenuntergrenze
Mi, 21.10. 0:30 8(3900m) 8(5100m) 8(5700m)
Mi, 21.10. 0:20 8(3900m) 8(5100m) 8(5700m)
Mi, 21.10. 0:10 2(3300m) 8(3900m) 8(4800m)
Mi, 21.10. 0:00 7(3900m) 7(4800m) 8(7200m)
Di, 20.10. 23:50 7(3900m) 7(4800m) 8(7200m)
Di, 20.10. 23:40 6(3900m) 7(6600m) 8(7200m)
Di, 20.10. 23:30 4(4200m) 8(6600m) 8(7200m)
Di, 20.10. 23:00 5(4500m) 8(6900m)
Ortszeit Stationsdruck (hPa) Tendenz (hPa in 3 Std.)
Di, 20.10. 20:00 904 - 0,1
Di, 20.10. 14:00 905 - 0,6
Di, 20.10. 8:00 905 0,0
Di, 20.10. 2:00 906 - 1,3
Mo, 19.10. 20:00 908 - 0,5
Mo, 19.10. 14:00 909 - 0,9
Mo, 19.10. 8:00 910 - 0,4
Mo, 19.10. 2:00 910 0,0
Ortszeit Stationsdruck (hPa) Tendenz (hPa in 3 Std.)
Mi, 21.10. 0:30 902 - 1,4
Mi, 21.10. 0:20 902 keine Meldung
Mi, 21.10. 0:10 902 keine Meldung
Mi, 21.10. 0:00 903 - 1,5
Di, 20.10. 23:50 903 keine Meldung
Di, 20.10. 23:40 903 keine Meldung
Di, 20.10. 23:30 903 - 1,3
Di, 20.10. 23:00 903 - 1,1
Ortszeit Schneehöhe (cm)
Di, 20.10. 20:00 0
Di, 20.10. 14:00 0
Di, 20.10. 8:00 0
Di, 20.10. 2:00 0
Mo, 19.10. 20:00 0
Mo, 19.10. 14:00 0
Mo, 19.10. 8:00 0
Mo, 19.10. 2:00 0
Ortszeit Schneehöhe (cm)
Mi, 21.10. 0:30 0
Mi, 21.10. 0:20 0
Mi, 21.10. 0:10 0
Mi, 21.10. 0:00 0
Di, 20.10. 23:50 0
Di, 20.10. 23:40 0
Di, 20.10. 23:30 0
Di, 20.10. 23:00 0
Link zu dieser Seite / Seite empfehlen

Das Wetter in ...